Time;durP1;ratioP1;P1;durP2;ratioP2;P2;SDS_P1;SDS_P2;PMS_P1;PMS_P2;Temp;Humidity;BMP_temperature;BMP_pressure;BME280_temperature;BME280_humidity;BME280_pressure;Samples;Min_cycle;Max_cycle;Signal;HPM_P1;HPM_P2
2023/08/23 01:42:10;;;;;;;3.60;2.50;;;26.60;60.00;;;;;;218246;1282;26555;-58
2023/08/23 01:47:14;;;;;;;4.50;2.20;;;26.60;60.00;;;;;;220277;1275;22589;-58
2023/08/23 01:52:17;;;;;;;6.90;2.50;;;26.70;59.80;;;;;;220236;1281;23032;-58
2023/08/23 01:57:20;;;;;;;4.60;2.50;;;26.70;60.20;;;;;;220364;1276;22733;-58
2023/08/23 02:02:23;;;;;;;5.30;2.70;;;26.80;59.80;;;;;;220318;1267;22774;-58
2023/08/23 02:07:25;;;;;;;3.80;2.70;;;26.70;59.80;;;;;;220458;1276;22663;-58
2023/08/23 02:12:28;;;;;;;6.20;2.60;;;26.70;60.00;;;;;;220298;1282;23909;-58
2023/08/23 02:17:32;;;;;;;5.40;2.40;;;26.70;60.20;;;;;;220344;1282;22751;-59
2023/08/23 02:22:34;;;;;;;3.10;2.30;;;26.60;60.10;;;;;;220117;1281;22651;-56
2023/08/23 02:27:40;;;;;;;6.30;2.80;;;26.70;60.10;;;;;;220918;1277;22655;-57
2023/08/23 02:32:43;;;;;;;4.70;2.20;;;26.70;60.10;;;;;;220705;1272;22585;-57
2023/08/23 02:37:46;;;;;;;2.70;2.50;;;26.60;60.10;;;;;;220974;1275;22784;-60
2023/08/23 02:42:49;;;;;;;4.40;2.20;;;26.60;60.20;;;;;;221245;1275;22531;-57
2023/08/23 02:47:52;;;;;;;2.40;2.20;;;26.60;59.80;;;;;;221257;1275;22525;-54
2023/08/23 02:52:55;;;;;;;5.00;2.40;;;26.60;60.30;;;;;;220983;1263;23887;-57
2023/08/23 02:57:58;;;;;;;4.60;2.60;;;26.50;60.40;;;;;;221364;1261;24257;-57
2023/08/23 03:03:01;;;;;;;8.80;2.80;;;26.40;60.50;;;;;;221425;1269;22521;-57
2023/08/23 03:08:05;;;;;;;3.80;2.70;;;26.40;60.50;;;;;;221198;1269;24242;-57
2023/08/23 03:13:09;;;;;;;3.60;2.50;;;26.30;60.50;;;;;;221321;1261;22640;-58
2023/08/23 03:18:11;;;;;;;5.00;2.50;;;26.20;60.60;;;;;;221214;1270;24196;-60
2023/08/23 03:23:18;;;;;;;5.60;2.70;;;26.20;60.60;;;;;;221576;1272;24301;-58
2023/08/23 03:28:21;;;;;;;3.60;2.20;;;26.30;60.50;;;;;;221416;1267;24211;-57
2023/08/23 03:33:24;;;;;;;4.20;2.40;;;26.30;60.40;;;;;;221666;1267;25380;-57
2023/08/23 03:38:30;;;;;;;4.40;2.60;;;26.30;60.20;;;;;;221259;1273;22489;-58
2023/08/23 03:43:39;;;;;;;2.90;2.50;;;26.40;60.10;;;;;;221330;1270;25575;-57
2023/08/23 03:48:42;;;;;;;4.60;2.30;;;26.40;60.10;;;;;;221478;1266;22612;-58
2023/08/23 03:53:45;;;;;;;3.90;2.30;;;26.30;60.10;;;;;;221302;1263;22824;-57
2023/08/23 03:58:49;;;;;;;3.20;2.20;;;26.20;60.00;;;;;;221724;1266;22615;-57
2023/08/23 04:03:52;;;;;;;4.10;2.60;;;26.20;60.00;;;;;;221975;1272;22537;-61
2023/08/23 04:08:55;;;;;;;6.00;2.80;;;26.10;60.00;;;;;;221944;1270;22523;-58
2023/08/23 04:13:58;;;;;;;3.00;2.10;;;26.00;60.20;;;;;;221860;1269;24267;-58
2023/08/23 04:19:01;;;;;;;9.30;2.50;;;26.00;59.80;;;;;;221629;1269;22511;-56
2023/08/23 04:24:04;;;;;;;3.40;2.60;;;26.00;59.80;;;;;;221696;1267;22769;-56
2023/08/23 04:29:06;;;;;;;5.20;2.50;;;26.00;59.80;;;;;;221937;1266;22514;-57
2023/08/23 04:34:10;;;;;;;7.40;2.70;;;26.10;59.50;;;;;;221747;1272;22541;-58
2023/08/23 04:39:15;;;;;;;3.50;2.20;;;26.20;59.20;;;;;;221821;1271;24253;-58
2023/08/23 04:44:19;;;;;;;5.90;2.60;;;26.20;59.30;;;;;;221704;1270;26633;-57
2023/08/23 04:49:25;;;;;;;4.20;2.70;;;26.10;59.30;;;;;;221921;1266;24196;-59
2023/08/23 04:54:29;;;;;;;3.80;2.80;;;26.00;59.50;;;;;;221720;1272;22522;-57
2023/08/23 04:59:32;;;;;;;6.30;2.70;;;25.90;60.20;;;;;;221709;1267;22515;-57
2023/08/23 05:04:38;;;;;;;3.10;2.90;;;25.90;59.80;;;;;;221721;1264;25312;-56
2023/08/23 05:09:41;;;;;;;3.40;2.60;;;25.90;59.90;;;;;;221864;1268;22516;-58
2023/08/23 05:14:44;;;;;;;6.30;3.90;;;25.90;59.90;;;;;;221658;1267;22538;-58
2023/08/23 05:19:47;;;;;;;10.00;2.80;;;26.00;60.00;;;;;;221805;1270;23871;-57
2023/08/23 05:24:50;;;;;;;4.20;2.40;;;26.00;60.10;;;;;;221497;1270;22521;-60
2023/08/23 05:29:53;;;;;;;5.60;2.10;;;25.90;60.30;;;;;;221487;1267;22639;-58
2023/08/23 05:34:56;;;;;;;4.10;2.50;;;26.00;60.40;;;;;;221931;1270;22655;-60
2023/08/23 05:39:59;;;;;;;3.10;2.50;;;26.00;60.30;;;;;;222019;1268;22529;-57
2023/08/23 05:45:03;;;;;;;4.70;2.80;;;26.00;60.40;;;;;;221812;1264;24193;-60
2023/08/23 05:50:06;;;;;;;10.00;3.00;;;26.00;60.50;;;;;;221693;1267;22545;-57
2023/08/23 05:55:09;;;;;;;2.80;2.30;;;25.90;61.00;;;;;;221844;1267;22701;-58
2023/08/23 06:00:14;;;;;;;4.90;2.70;;;25.90;60.80;;;;;;221738;1272;22766;-56
2023/08/23 06:05:19;;;;;;;4.20;3.00;;;26.00;61.00;;;;;;221421;1267;24206;-57
2023/08/23 06:10:25;;;;;;;4.90;3.40;;;25.90;60.60;;;;;;221863;1257;22517;-61
2023/08/23 06:15:28;;;;;;;3.80;2.30;;;25.90;60.70;;;;;;221639;1269;23882;-56
2023/08/23 06:20:31;;;;;;;4.70;2.30;;;26.00;60.50;;;;;;221754;1260;24278;-57
2023/08/23 06:25:34;;;;;;;4.20;2.60;;;26.00;60.30;;;;;;221779;1267;22812;-56
2023/08/23 06:30:38;;;;;;;3.00;2.60;;;26.10;60.40;;;;;;221807;1256;23914;-57
2023/08/23 06:35:42;;;;;;;3.60;2.70;;;26.00;60.50;;;;;;221831;1263;22531;-56
2023/08/23 06:40:45;;;;;;;4.50;2.50;;;25.90;60.60;;;;;;221541;1271;22569;-57
2023/08/23 06:45:47;;;;;;;3.30;2.40;;;26.00;60.40;;;;;;221514;1269;24208;-56
2023/08/23 06:50:50;;;;;;;5.70;2.80;;;26.00;60.10;;;;;;221536;1267;25230;-59
2023/08/23 06:55:54;;;;;;;5.10;2.50;;;26.00;59.90;;;;;;221284;1267;25165;-57
2023/08/23 07:00:57;;;;;;;6.80;2.70;;;26.00;59.60;;;;;;221606;1267;22602;-55
2023/08/23 07:06:02;;;;;;;3.10;2.10;;;26.10;59.20;;;;;;221971;1260;22624;-56
2023/08/23 07:11:05;;;;;;;4.90;2.20;;;26.30;58.70;;;;;;222088;1267;22528;-60
2023/08/23 07:16:10;;;;;;;3.30;2.30;;;26.30;58.10;;;;;;221928;1271;22540;-56
2023/08/23 07:21:14;;;;;;;6.60;2.30;;;26.30;57.90;;;;;;221533;1266;22686;-57
2023/08/23 07:26:17;;;;;;;10.30;2.50;;;26.40;57.20;;;;;;221602;1269;24201;-57
2023/08/23 07:31:20;;;;;;;4.00;2.30;;;26.30;57.90;;;;;;221489;1251;22643;-55
2023/08/23 07:36:23;;;;;;;4.00;2.20;;;26.40;57.50;;;;;;221735;1264;22829;-56
2023/08/23 07:41:25;;;;;;;6.60;1.90;;;26.30;57.10;;;;;;221619;1272;22577;-57
2023/08/23 07:46:28;;;;;;;4.40;1.50;;;26.10;56.60;;;;;;221758;1251;26495;-57
2023/08/23 07:51:31;;;;;;;3.50;1.80;;;26.40;55.40;;;;;;221718;1264;23710;-58
2023/08/23 07:56:34;;;;;;;2.60;1.90;;;26.50;56.00;;;;;;221900;1270;22543;-57
2023/08/23 08:01:38;;;;;;;8.30;2.20;;;26.40;56.20;;;;;;221605;1264;25161;-57
2023/08/23 08:06:41;;;;;;;6.10;1.50;;;26.50;55.70;;;;;;221516;1260;24296;-53
2023/08/23 08:11:44;;;;;;;9.30;2.30;;;26.70;55.70;;;;;;221623;1272;25321;-51
2023/08/23 08:16:48;;;;;;;4.70;2.00;;;26.70;55.50;;;;;;221308;1266;22531;-51
2023/08/23 08:21:54;;;;;;;2.90;2.00;;;26.90;53.60;;;;;;221826;1267;22557;-53
2023/08/23 08:26:58;;;;;;;6.00;2.00;;;26.70;53.90;;;;;;221766;1272;22515;-56
2023/08/23 08:32:02;;;;;;;2.30;1.80;;;26.80;54.10;;;;;;221871;1267;22642;-56
2023/08/23 08:37:06;;;;;;;3.40;1.70;;;26.70;53.60;;;;;;221747;1257;24208;-55
2023/08/23 08:42:10;;;;;;;7.10;2.00;;;26.80;53.50;;;;;;222099;1266;22541;-57
2023/08/23 08:47:13;;;;;;;2.70;1.60;;;27.00;51.50;;;;;;221803;1264;22536;-57
2023/08/23 08:52:20;;;;;;;4.20;1.60;;;27.20;51.10;;;;;;221831;1272;22533;-51
2023/08/23 08:57:27;;;;;;;2.90;1.50;;;27.30;50.20;;;;;;222028;1264;22515;-55
2023/08/23 09:02:31;;;;;;;3.00;1.40;;;27.40;50.80;;;;;;221969;1269;22524;-55
2023/08/23 09:07:36;;;;;;;2.10;1.60;;;27.20;50.10;;;;;;223911;1264;24209;-55
2023/08/23 09:12:38;;;;;;;4.40;1.50;;;27.00;51.20;;;;;;222982;1264;22653;-54
2023/08/23 09:17:41;;;;;;;2.70;1.90;;;27.10;51.40;;;;;;221634;1264;22640;-55
2023/08/23 09:22:50;;;;;;;5.30;2.30;;;27.30;50.10;;;;;;221718;1264;23013;-56
2023/08/23 09:27:56;;;;;;;7.20;1.80;;;27.50;48.80;;;;;;221951;1269;23181;-56
2023/08/23 09:33:00;;;;;;;2.30;1.70;;;27.20;50.50;;;;;;221716;1269;24241;-56
2023/08/23 09:38:04;;;;;;;3.70;2.30;;;27.40;48.20;;;;;;221700;1271;22580;-56
2023/08/23 09:43:07;;;;;;;4.40;2.30;;;27.60;48.80;;;;;;221704;1260;22765;-57
2023/08/23 09:48:11;;;;;;;2.50;1.80;;;27.70;47.90;;;;;;221272;1272;22577;-56
2023/08/23 09:53:28;;;;;;;4.30;2.10;;;27.80;46.60;;;;;;221488;1266;24282;-56
2023/08/23 09:58:30;;;;;;;5.60;2.70;;;27.70;46.40;;;;;;221373;1265;22643;-56
2023/08/23 10:03:33;;;;;;;2.70;1.70;;;27.80;46.20;;;;;;221855;1257;22523;-57
2023/08/23 10:08:36;;;;;;;5.00;2.10;;;27.70;46.50;;;;;;221675;1270;22528;-55
2023/08/23 10:13:40;;;;;;;6.80;2.80;;;27.70;46.50;;;;;;221657;1266;22590;-55
2023/08/23 10:18:44;;;;;;;3.60;2.40;;;27.80;46.40;;;;;;221719;1269;22521;-55
2023/08/23 10:23:48;;;;;;;2.50;1.80;;;27.70;47.90;;;;;;221726;1257;22527;-56
2023/08/23 10:28:53;;;;;;;7.10;2.00;;;27.90;49.60;;;;;;221591;1264;24327;-60
2023/08/23 10:33:57;;;;;;;2.50;2.20;;;27.80;48.70;;;;;;221874;1270;22608;-57
2023/08/23 10:39:00;;;;;;;5.00;2.20;;;28.10;48.80;;;;;;222292;1270;23907;-57
2023/08/23 10:44:13;;;;;;;2.20;1.90;;;28.00;48.80;;;;;;221916;1272;24196;-56
2023/08/23 10:49:20;;;;;;;3.40;2.00;;;28.00;49.30;;;;;;221785;1260;22708;-58
2023/08/23 10:54:23;;;;;;;2.80;2.30;;;27.90;48.80;;;;;;221915;1268;22547;-60
2023/08/23 10:59:26;;;;;;;2.50;1.70;;;28.10;48.60;;;;;;221975;1266;24298;-56
2023/08/23 11:04:30;;;;;;;3.90;2.00;;;28.10;49.30;;;;;;221814;1266;22537;-55
2023/08/23 11:09:34;;;;;;;4.80;1.60;;;27.80;48.90;;;;;;221843;1257;25353;-56
2023/08/23 11:14:39;;;;;;;3.30;1.60;;;27.60;48.00;;;;;;221793;1272;22637;-54
2023/08/23 11:19:42;;;;;;;2.50;1.90;;;27.80;48.10;;;;;;221916;1266;22657;-57
2023/08/23 11:24:46;;;;;;;2.40;1.80;;;27.80;48.20;;;;;;221887;1269;22532;-57
2023/08/23 11:29:49;;;;;;;1.70;1.30;;;28.30;46.80;;;;;;222212;1266;22524;-58
2023/08/23 11:34:55;;;;;;;2.60;1.70;;;28.40;46.80;;;;;;222144;1269;24212;-58
2023/08/23 11:40:19;;;;;;;2.80;1.70;;;28.50;45.60;;;;;;221855;1266;22580;-55
2023/08/23 11:45:23;;;;;;;2.10;1.90;;;28.40;46.10;;;;;;222357;1264;22696;-58
2023/08/23 11:50:28;;;;;;;5.40;1.50;;;28.60;47.10;;;;;;222080;1267;22522;-55
2023/08/23 11:55:33;;;;;;;3.70;1.80;;;28.70;46.00;;;;;;221911;1260;22536;-56
2023/08/23 12:00:36;;;;;;;6.40;1.90;;;28.70;46.80;;;;;;222264;1263;22542;-56
2023/08/23 12:05:39;;;;;;;3.90;1.60;;;28.70;46.30;;;;;;221675;1247;23908;-56
2023/08/23 12:10:46;;;;;;;2.70;2.00;;;28.70;46.40;;;;;;223375;1257;25309;-56
2023/08/23 12:15:51;;;;;;;2.40;1.70;;;28.80;46.10;;;;;;222075;1263;683458;-52
2023/08/23 12:20:56;;;;;;;2.00;1.90;;;28.80;48.10;;;;;;221985;1263;22647;-53
2023/08/23 12:26:00;;;;;;;2.30;2.00;;;28.50;48.50;;;;;;221887;1263;22649;-55
2023/08/23 12:31:05;;;;;;;2.50;1.90;;;28.40;47.80;;;;;;222006;1256;22514;-52
2023/08/23 12:36:08;;;;;;;3.10;1.60;;;28.30;47.90;;;;;;222412;1262;22524;-54
2023/08/23 12:41:12;;;;;;;3.80;1.90;;;28.60;48.60;;;;;;222891;1250;24625;-54
2023/08/23 12:46:15;;;;;;;2.40;1.70;;;28.70;48.80;;;;;;222073;1263;23174;-53
2023/08/23 12:51:18;;;;;;;3.60;1.60;;;28.80;47.70;;;;;;222565;1263;22552;-55
2023/08/23 12:56:21;;;;;;;4.20;1.80;;;28.60;47.40;;;;;;221920;1262;25443;-55
2023/08/23 13:01:23;;;;;;;1.60;1.30;;;28.40;47.40;;;;;;222022;1261;24199;-57
2023/08/23 13:06:30;;;;;;;4.90;2.70;;;28.30;46.80;;;;;;221964;1266;24202;-56
2023/08/23 13:11:33;;;;;;;3.20;2.20;;;28.30;46.70;;;;;;222403;1259;24261;-55
2023/08/23 13:16:36;;;;;;;2.80;1.80;;;28.30;46.20;;;;;;222352;1266;22521;-56
2023/08/23 13:21:39;;;;;;;3.20;1.40;;;28.20;46.20;;;;;;222341;1263;22533;-58
2023/08/23 13:26:42;;;;;;;3.70;1.40;;;28.30;45.50;;;;;;221949;1263;24299;-56
2023/08/23 13:31:45;;;;;;;2.90;1.70;;;28.20;45.00;;;;;;222704;1263;22602;-56
2023/08/23 13:36:49;;;;;;;4.40;1.70;;;28.60;45.50;;;;;;222159;1263;22695;-56
2023/08/23 13:41:53;;;;;;;1.80;1.40;;;28.50;45.20;;;;;;222543;1263;22660;-58
2023/08/23 13:46:58;;;;;;;2.50;1.40;;;28.50;46.10;;;;;;222743;1257;23882;-57
2023/08/23 13:52:02;;;;;;;1.50;1.40;;;28.50;46.10;;;;;;222419;1266;22553;-57
2023/08/23 13:57:07;;;;;;;3.50;1.40;;;28.40;45.80;;;;;;222089;1266;24246;-59
2023/08/23 14:02:10;;;;;;;2.10;1.50;;;28.60;45.60;;;;;;222464;1263;22516;-58
2023/08/23 14:07:15;;;;;;;3.90;1.40;;;28.70;46.00;;;;;;222343;1257;23930;-59
2023/08/23 14:12:17;;;;;;;1.80;1.70;;;28.50;46.00;;;;;;222389;1263;22634;-60
2023/08/23 14:17:20;;;;;;;2.10;1.80;;;28.70;46.70;;;;;;222340;1269;22639;-59
2023/08/23 14:22:24;;;;;;;4.00;1.70;;;28.60;47.20;;;;;;222127;1263;22644;-60
2023/08/23 14:27:26;;;;;;;2.90;1.20;;;28.50;47.30;;;;;;222084;1263;22517;-58
2023/08/23 14:32:33;;;;;;;2.50;1.50;;;28.20;46.10;;;;;;222065;1266;22503;-58
2023/08/23 14:37:35;;;;;;;1.30;1.20;;;28.10;45.10;;;;;;222525;1263;24735;-57
2023/08/23 14:42:39;;;;;;;3.10;1.20;;;28.10;44.50;;;;;;222196;1269;22524;-58
2023/08/23 14:47:42;;;;;;;4.30;1.20;;;28.10;44.30;;;;;;222370;1260;22592;-57
2023/08/23 14:52:45;;;;;;;2.10;1.20;;;28.20;44.00;;;;;;221988;1269;22515;-58
2023/08/23 14:57:48;;;;;;;1.40;1.30;;;28.00;44.00;;;;;;222130;1264;22588;-59
2023/08/23 15:02:51;;;;;;;4.70;1.30;;;28.10;43.90;;;;;;222404;1262;22549;-57
2023/08/23 15:07:54;;;;;;;6.50;1.50;;;28.20;44.90;;;;;;222195;1263;24196;-59
2023/08/23 15:13:00;;;;;;;1.50;1.00;;;28.30;45.50;;;;;;222103;1266;22772;-60
2023/08/23 15:18:04;;;;;;;3.80;1.70;;;28.00;44.10;;;;;;222243;1262;22510;-59
2023/08/23 15:23:09;;;;;;;1.50;1.20;;;27.80;43.60;;;;;;222100;1269;22543;-58
2023/08/23 15:28:12;;;;;;;1.50;1.20;;;27.80;44.00;;;;;;222258;1264;23142;-58
2023/08/23 15:33:15;;;;;;;5.20;1.40;;;27.80;43.40;;;;;;222093;1269;22601;-57
2023/08/23 15:38:18;;;;;;;4.30;1.50;;;27.90;43.70;;;;;;222471;1263;22601;-60
2023/08/23 15:43:21;;;;;;;3.90;1.40;;;27.80;44.50;;;;;;222366;1263;22750;-61
2023/08/23 15:48:28;;;;;;;4.90;1.20;;;27.80;44.40;;;;;;222180;1257;25409;-58
2023/08/23 15:53:31;;;;;;;3.80;1.70;;;27.80;44.40;;;;;;222160;1247;23132;-58
2023/08/23 15:58:33;;;;;;;2.50;1.10;;;27.80;43.80;;;;;;222297;1266;23880;-59
2023/08/23 16:03:36;;;;;;;3.40;1.80;;;27.70;43.60;;;;;;221882;1263;23895;-57
2023/08/23 16:08:39;;;;;;;8.10;1.20;;;27.70;44.00;;;;;;221959;1269;23117;-56
2023/08/23 16:13:43;;;;;;;4.30;1.30;;;27.70;44.40;;;;;;222494;1266;23824;-59
2023/08/23 16:18:47;;;;;;;2.90;1.20;;;27.70;44.20;;;;;;222074;1256;22566;-58
2023/08/23 16:23:50;;;;;;;3.40;1.20;;;27.60;44.00;;;;;;222032;1269;22565;-57
2023/08/23 16:28:53;;;;;;;2.30;1.30;;;27.60;44.80;;;;;;222122;1265;22517;-60
2023/08/23 16:33:56;;;;;;;1.80;1.00;;;27.60;44.30;;;;;;222133;1269;22548;-57
2023/08/23 16:38:59;;;;;;;2.50;1.50;;;27.60;44.90;;;;;;222417;1268;22535;-58
2023/08/23 16:44:02;;;;;;;6.10;1.40;;;27.60;45.90;;;;;;222397;1263;22654;-57
2023/08/23 16:49:06;;;;;;;5.10;1.50;;;27.40;46.20;;;;;;222496;1269;22523;-54
2023/08/23 16:54:10;;;;;;;6.00;1.60;;;27.60;46.50;;;;;;222133;1266;22524;-57
2023/08/23 16:59:14;;;;;;;4.30;1.60;;;27.50;47.00;;;;;;222302;1258;23760;-61
2023/08/23 17:04:18;;;;;;;3.20;1.90;;;27.30;47.50;;;;;;222443;1263;22574;-61
2023/08/23 17:09:21;;;;;;;8.60;1.90;;;27.20;48.30;;;;;;222457;1266;22525;-57
2023/08/23 17:14:25;;;;;;;6.10;1.70;;;27.20;47.90;;;;;;222334;1263;22568;-55
2023/08/23 17:19:30;;;;;;;2.40;1.40;;;27.20;48.20;;;;;;222357;1263;22764;-57
2023/08/23 17:24:37;;;;;;;5.90;1.40;;;27.20;48.50;;;;;;222575;1266;24249;-57
2023/08/23 17:29:40;;;;;;;2.70;1.00;;;27.10;50.20;;;;;;222333;1246;24189;-57
2023/08/23 17:34:44;;;;;;;4.90;1.50;;;27.10;51.10;;;;;;222507;1263;24049;-57
2023/08/23 17:39:48;;;;;;;3.00;1.40;;;27.00;50.40;;;;;;222602;1266;24190;-58
2023/08/23 17:44:53;;;;;;;4.10;1.50;;;26.90;50.40;;;;;;222089;1269;22624;-57
2023/08/23 17:49:56;;;;;;;4.80;1.20;;;26.90;50.00;;;;;;222565;1268;25188;-56
2023/08/23 17:54:59;;;;;;;4.30;1.80;;;26.80;50.00;;;;;;222748;1257;23410;-56
2023/08/23 18:00:03;;;;;;;7.00;1.50;;;26.80;50.40;;;;;;222824;1266;25277;-55
2023/08/23 18:05:15;;;;;;;4.00;1.60;;;26.80;51.30;;;;;;222760;1263;22518;-48
2023/08/23 18:10:18;;;;;;;1.60;1.30;;;27.00;50.50;;;;;;222760;1254;22973;-51
2023/08/23 18:15:23;;;;;;;5.40;1.40;;;27.20;50.40;;;;;;222137;1268;22572;-48
2023/08/23 18:20:26;;;;;;;4.10;1.50;;;27.20;50.50;;;;;;222322;1269;25328;-50
2023/08/23 18:25:30;;;;;;;5.00;1.90;;;27.30;50.50;;;;;;223026;1264;25288;-52
2023/08/23 18:30:38;;;;;;;3.60;2.90;;;27.30;50.90;;;;;;222263;1256;22903;-46
2023/08/23 18:35:42;;;;;;;2.90;1.70;;;27.30;51.20;;;;;;222434;1266;23890;-47
2023/08/23 18:40:46;;;;;;;2.70;2.30;;;27.30;51.10;;;;;;222615;1261;22630;-50
2023/08/23 18:45:50;;;;;;;6.40;2.60;;;27.30;51.20;;;;;;222671;1266;25353;-47
2023/08/23 18:51:02;;;;;;;6.90;3.20;;;27.30;51.40;;;;;;222474;1266;22524;-49
2023/08/23 18:56:06;;;;;;;4.70;2.80;;;27.10;53.10;;;;;;222378;1264;25274;-52
2023/08/23 19:01:12;;;;;;;6.90;3.10;;;27.10;52.70;;;;;;222620;1269;25217;-49
2023/08/23 19:06:36;;;;;;;4.20;3.10;;;27.20;53.50;;;;;;222627;1263;22733;-50
2023/08/23 19:11:42;;;;;;;10.00;2.80;;;27.50;53.80;;;;;;223090;1266;24374;-51
2023/08/23 19:16:46;;;;;;;5.20;3.00;;;27.60;53.30;;;;;;222619;1253;24323;-49
2023/08/23 19:21:55;;;;;;;5.10;3.10;;;27.70;53.80;;;;;;222648;1263;24198;-52
2023/08/23 19:26:59;;;;;;;5.30;3.50;;;27.70;53.80;;;;;;222618;1266;23419;-50
2023/08/23 19:32:07;;;;;;;6.40;3.20;;;27.60;53.30;;;;;;222381;1259;22521;-52
2023/08/23 19:37:12;;;;;;;7.10;3.30;;;27.40;53.50;;;;;;222367;1263;22629;-57
2023/08/23 19:42:25;;;;;;;7.60;2.80;;;27.40;53.90;;;;;;222762;1259;24231;-56
2023/08/23 19:47:30;;;;;;;7.80;3.10;;;26.80;51.70;;;;;;222344;1266;22883;-55
2023/08/23 19:52:34;;;;;;;6.80;3.10;;;26.40;51.40;;;;;;222437;1269;22515;-57
2023/08/23 19:57:39;;;;;;;9.30;3.00;;;26.00;50.00;;;;;;222856;1253;24246;-48
2023/08/23 20:02:44;;;;;;;12.60;3.20;;;26.00;48.80;;;;;;222341;1266;22527;-47
2023/08/23 20:07:48;;;;;;;15.10;4.00;;;25.70;47.70;;;;;;222561;1264;24205;-51
2023/08/23 20:12:58;;;;;;;10.90;3.50;;;25.50;46.90;;;;;;222880;1263;22753;-47
2023/08/23 20:18:03;;;;;;;6.80;3.20;;;25.20;46.40;;;;;;222653;1266;25391;-47
2023/08/23 20:23:07;;;;;;;8.10;3.30;;;25.00;46.30;;;;;;222918;1263;22653;-50
2023/08/23 20:28:13;;;;;;;9.90;3.50;;;24.90;45.60;;;;;;222211;1265;22521;-50
2023/08/23 20:33:22;;;;;;;17.50;3.40;;;25.10;47.10;;;;;;222687;1266;22545;-47
2023/08/23 20:38:26;;;;;;;8.50;3.60;;;25.80;47.70;;;;;;222558;1266;25592;-47
2023/08/23 20:43:31;;;;;;;12.50;3.10;;;26.00;48.70;;;;;;222644;1268;22514;-52
2023/08/23 20:48:36;;;;;;;5.90;3.30;;;26.10;50.10;;;;;;222486;1269;24366;-51
2023/08/23 20:53:40;;;;;;;5.80;3.40;;;26.20;50.50;;;;;;222661;1269;22716;-49
2023/08/23 20:58:44;;;;;;;7.00;4.00;;;26.20;51.30;;;;;;222148;1254;25321;-50
2023/08/23 21:04:01;;;;;;;7.00;3.60;;;26.30;51.50;;;;;;222510;1266;23895;-52
2023/08/23 21:09:04;;;;;;;7.30;3.30;;;26.30;51.70;;;;;;222427;1266;24314;-49
2023/08/23 21:14:10;;;;;;;3.80;3.30;;;26.50;51.60;;;;;;222438;1263;22592;-61
2023/08/23 21:19:14;;;;;;;8.50;3.30;;;26.60;51.90;;;;;;222516;1254;22525;-62
2023/08/23 21:24:17;;;;;;;5.70;3.40;;;26.70;52.70;;;;;;222363;1259;23895;-61
2023/08/23 21:29:20;;;;;;;6.20;3.40;;;26.80;53.00;;;;;;222527;1269;25478;-61
2023/08/23 21:34:23;;;;;;;4.90;3.90;;;26.80;52.70;;;;;;222429;1269;22602;-60
2023/08/23 21:39:26;;;;;;;5.20;4.00;;;26.70;52.80;;;;;;222239;1269;22514;-61
2023/08/23 21:44:30;;;;;;;9.60;4.80;;;26.80;52.90;;;;;;222087;1268;24323;-62
2023/08/23 21:49:33;;;;;;;5.00;3.90;;;26.80;53.20;;;;;;222067;1260;24225;-62
2023/08/23 21:54:36;;;;;;;4.40;4.00;;;26.90;53.30;;;;;;223091;1266;22524;-61
2023/08/23 21:59:43;;;;;;;4.30;3.90;;;26.90;53.80;;;;;;222375;1269;22516;-61
2023/08/23 22:04:46;;;;;;;5.80;4.40;;;26.90;53.60;;;;;;222263;1269;25462;-62
2023/08/23 22:09:49;;;;;;;3.70;3.40;;;27.00;53.40;;;;;;222648;1263;22543;-63
2023/08/23 22:14:52;;;;;;;4.40;3.50;;;27.00;53.50;;;;;;222266;1266;22633;-62
2023/08/23 22:19:55;;;;;;;5.10;3.70;;;27.00;53.70;;;;;;222450;1263;22547;-62
2023/08/23 22:24:58;;;;;;;4.20;3.40;;;27.00;54.10;;;;;;222202;1266;22528;-63
2023/08/23 22:30:01;;;;;;;5.70;3.70;;;26.90;54.30;;;;;;222657;1266;23828;-64
2023/08/23 22:35:04;;;;;;;5.00;3.90;;;26.90;54.20;;;;;;222339;1254;25390;-62
2023/08/23 22:40:11;;;;;;;4.00;3.50;;;27.00;54.20;;;;;;222685;1263;25412;-64
2023/08/23 22:45:15;;;;;;;4.10;3.40;;;26.90;54.50;;;;;;222694;1260;25294;-62
2023/08/23 22:50:18;;;;;;;4.10;3.20;;;27.00;54.20;;;;;;222477;1263;24375;-61
2023/08/23 22:55:21;;;;;;;4.90;3.30;;;26.90;54.50;;;;;;222057;1260;22525;-63
2023/08/23 23:00:24;;;;;;;4.40;3.50;;;27.00;54.50;;;;;;225482;1269;22544;-63
2023/08/23 23:05:27;;;;;;;4.30;3.10;;;27.00;54.40;;;;;;223130;1255;25318;-63
2023/08/23 23:10:29;;;;;;;3.50;3.20;;;27.00;54.50;;;;;;222199;1269;24190;-64
2023/08/23 23:15:33;;;;;;;5.50;3.20;;;27.00;54.60;;;;;;222759;1263;22788;-63
2023/08/23 23:20:36;;;;;;;3.40;3.10;;;26.90;54.70;;;;;;222786;1263;23581;-64
2023/08/23 23:25:44;;;;;;;3.50;3.20;;;26.90;54.90;;;;;;222578;1254;24220;-63
2023/08/23 23:30:47;;;;;;;2.90;2.70;;;26.90;54.90;;;;;;222745;1265;22521;-63
2023/08/23 23:35:50;;;;;;;3.40;3.10;;;26.90;54.90;;;;;;222239;1269;22592;-63
2023/08/23 23:40:52;;;;;;;5.30;3.60;;;27.00;55.00;;;;;;222416;1269;22570;-62
2023/08/23 23:45:55;;;;;;;3.20;2.80;;;27.00;55.10;;;;;;222388;1269;22580;-63
2023/08/23 23:50:58;;;;;;;3.60;2.90;;;26.90;55.10;;;;;;222293;1267;22518;-63
2023/08/23 23:56:01;;;;;;;3.90;3.50;;;27.00;55.20;;;;;;222752;1269;22519;-62
